Athena — WDG6862 — position and weather

sailwx.info

Track history (hours):
 
Tides and Currents Weather Stations Pressure Air Temp Water Temp Dewpoint Dewpoint Depression Visibility Wind Speed Wind Dir Waves Ship Positions

Athena

Owner: Seabulk Towing Inc., Fort Lauderdale, FL. More information available from US FCC via Universal Licensing System and Coast Guard Vessel Documentation Center.

Last reported at 2018-Feb-24 06:30 UTC. Time now 2018-Feb-24 06:45 UTC.
Position N 27°55' W 082°27'.

; draft 6 m.

Type: Tug. MMSI: 367561460.

Date/timePositionNaut miles runAvg speedWind from/ knotsBaromVisibWave heightAir tempDewpointWater temp
2018-Feb-24 06:30N 27°55' W 082°27'0 0.0
2018-Feb-24 06:00N 27°55' W 082°27'0 0.0
2018-Feb-24 05:30N 27°55' W 082°27'0 0.0
2018-Feb-24 04:59N 27°55' W 082°27'0 0.0
2018-Feb-24 04:30N 27°55' W 082°27'0 0.0
2018-Feb-24 04:01N 27°55' W 082°27'0 0.0
2018-Feb-24 03:30N 27°55' W 082°27'0 0.0
2018-Feb-24 03:00N 27°55' W 082°27'0 0.0
2018-Feb-24 02:30N 27°55' W 082°27'0 0.0
2018-Feb-24 02:01N 27°55' W 082°27'0 0.0
2018-Feb-24 01:30N 27°55' W 082°27'0 0.0
2018-Feb-24 01:00N 27°55' W 082°27'2 3.3
2018-Feb-24 00:30N 27°54' W 082°25'0 0.0
2018-Feb-24 00:01N 27°54' W 082°25'0 0.8
2018-Feb-23 23:30N 27°54' W 082°26'2 3.1
2018-Feb-23 23:00N 27°53' W 082°27'1 2.4
2018-Feb-23 22:30N 27°54' W 082°26'1 2.9
2018-Feb-23 22:00N 27°55' W 082°27'0 0.0
2018-Feb-23 21:30N 27°55' W 082°27'0 0.0
2018-Feb-23 20:58N 27°55' W 082°27'0 0.0
2018-Feb-23 20:30N 27°55' W 082°27'0 0.0
2018-Feb-23 20:00N 27°55' W 082°27'0 0.0
2018-Feb-23 19:31N 27°55' W 082°27'0 0.0
2018-Feb-23 19:01N 27°55' W 082°27'1 1.9
2018-Feb-23 18:30N 27°55' W 082°26'0 0.0
2018-Feb-23 18:00N 27°55' W 082°26'0 0.0
2018-Feb-23 17:30N 27°55' W 082°26'0 0.0
2018-Feb-23 17:00N 27°55' W 082°26'0 0.0
2018-Feb-23 16:30N 27°55' W 082°26'0 0.0
2018-Feb-23 16:00N 27°55' W 082°26'1 2.0
2018-Feb-23 15:30N 27°54' W 082°26'1 2.4
2018-Feb-23 15:01N 27°55' W 082°27'0 0.0
2018-Feb-23 14:31N 27°55' W 082°27'0 0.0
2018-Feb-23 14:01N 27°55' W 082°27'0 0.0
2018-Feb-23 13:30N 27°55' W 082°27'0 0.0
2018-Feb-23 13:00N 27°55' W 082°27'0 0.0
2018-Feb-23 12:30N 27°55' W 082°27'0 0.0
2018-Feb-23 12:01N 27°55' W 082°27'0 0.0
2018-Feb-23 11:30N 27°55' W 082°27'0 0.0
2018-Feb-23 11:00N 27°55' W 082°27'1 2.9
2018-Feb-23 10:31N 27°57' W 082°27'0 0.2
2018-Feb-23 10:01N 27°57' W 082°27'2 3.5
2018-Feb-23 09:31N 27°55' W 082°27'2 3.8
2018-Feb-23 09:01N 27°53' W 082°26'2 4.4
2018-Feb-23 08:29N 27°55' W 082°27'0 0.0
2018-Feb-23 08:00N 27°55' W 082°27'0 0.0
2018-Feb-23 07:30N 27°55' W 082°27'0 0.0
2018-Feb-23 07:00N 27°55' W 082°27'0 0.0
2018-Feb-23 06:31N 27°55' W 082°27'0 0.0
2018-Feb-23 05:59N 27°55' W 082°27'0 0.0
2018-Feb-23 05:30N 27°55' W 082°27'0 0.0
2018-Feb-23 05:00N 27°55' W 082°27'0 0.0
2018-Feb-23 04:30N 27°55' W 082°27'0 0.0
2018-Feb-23 04:00N 27°55' W 082°27'0 0.0
2018-Feb-23 03:30N 27°55' W 082°27'0 0.0
2018-Feb-23 03:00N 27°55' W 082°27'1 2.2
2018-Feb-23 02:30N 27°54' W 082°26'510.2
2018-Feb-23 01:59N 27°49' W 082°27'2 2.9
2018-Feb-23 01:12N 27°48' W 082°24'0 0.4
2018-Feb-23 00:58N 27°48' W 082°24'0 0.0
2018-Feb-23 00:29N 27°48' W 082°24'0 0.0
2018-Feb-23 00:00N 27°48' W 082°24'0 0.0
2018-Feb-22 23:28N 27°48' W 082°24'0 0.0
2018-Feb-22 23:00N 27°48' W 082°24'0 0.0
2018-Feb-22 22:28N 27°48' W 082°24'0 0.0
2018-Feb-22 20:35N 27°48' W 082°24'0 0.0
2018-Feb-22 20:25N 27°48' W 082°24'0 0.0
2018-Feb-22 19:59N 27°48' W 082°24'0 0.0
2018-Feb-22 19:30N 27°48' W 082°24'0 0.0
2018-Feb-22 18:56N 27°48' W 082°24'0 0.0
2018-Feb-22 18:29N 27°48' W 082°24'0 0.0
2018-Feb-22 17:58N 27°48' W 082°24'0 0.0
2018-Feb-22 17:30N 27°48' W 082°24'0 0.0
2018-Feb-22 16:47N 27°48' W 082°24'0 0.0
2018-Feb-22 16:24N 27°48' W 082°24'0 0.0
2018-Feb-22 15:58N 27°48' W 082°24'0 0.0
2018-Feb-22 15:21N 27°48' W 082°24'0 0.0
2018-Feb-22 14:58N 27°48' W 082°24'0 0.0
2018-Feb-22 14:23N 27°48' W 082°24'0 0.0
2018-Feb-22 13:58N 27°48' W 082°24'0 0.0
2018-Feb-22 12:32N 27°48' W 082°24'0 0.0
2018-Feb-22 12:13N 27°48' W 082°24'0 0.0
2018-Feb-22 11:49N 27°48' W 082°24'0 0.0
2018-Feb-22 11:28N 27°48' W 082°24'0 0.0
2018-Feb-22 11:01N 27°48' W 082°24'0 0.0
2018-Feb-22 10:30N 27°48' W 082°24'0 0.1
2018-Feb-22 09:54N 27°48' W 082°25'0 0.6
2018-Feb-22 09:15N 27°48' W 082°25'2 5.7
2018-Feb-22 08:56N 27°49' W 082°27'2 3.4
2018-Feb-22 08:17N 27°48' W 082°24'0 0.0
2018-Feb-22 08:00N 27°48' W 082°24'0 0.0
2018-Feb-22 07:30N 27°48' W 082°24'0 0.0
2018-Feb-22 07:00N 27°48' W 082°24'0 0.0
2018-Feb-22 06:29N 27°48' W 082°24'0 0.0
2018-Feb-22 06:00N 27°48' W 082°24'1 1.0
2018-Feb-22 05:29N 27°48' W 082°25'3 3.5
2018-Feb-22 04:35N 27°51' W 082°24'0 1.7
2018-Feb-22 04:31N 27°51' W 082°24'3 5.4
2018-Feb-22 04:00N 27°51' W 082°27'1 1.5
2018-Feb-22 03:30N 27°51' W 082°27'3 6.1
2018-Feb-22 02:59N 27°55' W 082°26'1 1.6
2018-Feb-22 02:30N 27°55' W 082°27'0 0.0
2018-Feb-22 02:00N 27°55' W 082°27'0 0.0
2018-Feb-22 01:30N 27°55' W 082°27'0 0.0
2018-Feb-22 01:00N 27°55' W 082°27'0 0.0
2018-Feb-22 00:30N 27°55' W 082°27'0 0.0
2018-Feb-22 00:01N 27°55' W 082°27'0 0.0
2018-Feb-21 23:30N 27°55' W 082°27'0 0.0
2018-Feb-21 23:00N 27°55' W 082°27'0 0.0
2018-Feb-21 22:30N 27°55' W 082°27'0 0.0
2018-Feb-21 22:00N 27°55' W 082°27'0 0.0
2018-Feb-21 21:31N 27°55' W 082°27'0 0.0
2018-Feb-21 20:57N 27°55' W 082°27'0 0.0
2018-Feb-21 20:29N 27°55' W 082°27'0 0.0
2018-Feb-21 20:00N 27°55' W 082°27'0 0.0
2018-Feb-21 19:30N 27°55' W 082°27'0 0.0
2018-Feb-21 18:58N 27°55' W 082°27'0 0.0
2018-Feb-21 18:30N 27°55' W 082°27'0 0.0
2018-Feb-21 18:00N 27°55' W 082°27'0 0.0
2018-Feb-21 17:30N 27°55' W 082°27'0 0.0
2018-Feb-21 17:00N 27°55' W 082°27'0 0.0
2018-Feb-21 16:31N 27°55' W 082°27'0 0.0
2018-Feb-21 16:00N 27°55' W 082°27'0 0.0
2018-Feb-21 15:30N 27°55' W 082°27'0 0.0
2018-Feb-21 15:00N 27°55' W 082°27'0 0.0
2018-Feb-21 14:30N 27°55' W 082°27'0 0.0
2018-Feb-21 13:58N 27°55' W 082°27'0 0.0
2018-Feb-21 13:28N 27°55' W 082°27'0 0.0
2018-Feb-21 13:00N 27°55' W 082°27'0 0.0
2018-Feb-21 12:31N 27°55' W 082°27'0 0.0
2018-Feb-21 12:00N 27°55' W 082°27'0 0.0
2018-Feb-21 11:30N 27°55' W 082°27'0 0.0
2018-Feb-21 11:00N 27°55' W 082°27'0 0.0
2018-Feb-21 10:30N 27°55' W 082°27'0 0.0
2018-Feb-21 10:00N 27°55' W 082°27'0 0.0
2018-Feb-21 09:31N 27°55' W 082°27'0 0.0
2018-Feb-21 09:00N 27°55' W 082°27'0 0.0
2018-Feb-21 08:31N 27°55' W 082°27'0 0.0
2018-Feb-21 07:59N 27°55' W 082°27'0 0.0
2018-Feb-21 07:29N 27°55' W 082°27'0 0.0
2018-Feb-21 06:59N 27°55' W 082°27'0 0.0
2018-Feb-21 06:30N 27°55' W 082°27'0 0.0
2018-Feb-21 06:01N 27°55' W 082°27'0 0.0
2018-Feb-21 05:30N 27°55' W 082°27'0 0.0
2018-Feb-21 05:00N 27°55' W 082°27'0 0.0
2018-Feb-21 04:30N 27°55' W 082°27'0 0.0
2018-Feb-21 04:01N 27°55' W 082°27'0 0.0
2018-Feb-21 03:30N 27°55' W 082°27'1 2.4
2018-Feb-21 03:00N 27°55' W 082°26'1 1.1
2018-Feb-21 02:30N 27°55' W 082°25'1 2.8
2018-Feb-21 02:00N 27°54' W 082°26'1 2.7
2018-Feb-21 01:30N 27°55' W 082°27'1 2.2
2018-Feb-21 01:00N 27°55' W 082°26'1 1.8
2018-Feb-21 00:30N 27°56' W 082°26'1 1.5
2018-Feb-21 00:00N 27°55' W 082°26'2 4.6
2018-Feb-20 23:30N 27°53' W 082°27'3 5.1
2018-Feb-20 23:00N 27°55' W 082°27'0 0.0
2018-Feb-20 22:30N 27°55' W 082°27'0 0.0
2018-Feb-20 21:59N 27°55' W 082°27'0 0.0
2018-Feb-20 21:30N 27°55' W 082°27'0 0.0
2018-Feb-20 20:57N 27°55' W 082°27'0 0.0
2018-Feb-20 20:29N 27°55' W 082°27'0 0.0
2018-Feb-20 20:00N 27°55' W 082°27'0 0.0
2018-Feb-20 19:30N 27°55' W 082°27'0 0.0
2018-Feb-20 19:01N 27°55' W 082°27'0 0.0
2018-Feb-20 18:31N 27°55' W 082°27'0 0.0
2018-Feb-20 18:00N 27°55' W 082°27'0 0.0
2018-Feb-20 17:29N 27°55' W 082°27'0 0.0
2018-Feb-20 17:01N 27°55' W 082°27'0 0.0
2018-Feb-20 16:30N 27°55' W 082°27'0 0.0
2018-Feb-20 15:59N 27°55' W 082°27'0 0.0
2018-Feb-20 15:30N 27°55' W 082°27'0 0.0
2018-Feb-20 15:00N 27°55' W 082°27'0 1.0
2018-Feb-20 14:30N 27°55' W 082°27'0 0.3
2018-Feb-20 14:00N 27°55' W 082°27'0 0.7
2018-Feb-20 13:30N 27°55' W 082°27'0 0.0
2018-Feb-20 12:59N 27°55' W 082°27'0 0.0
2018-Feb-20 12:30N 27°55' W 082°27'0 0.0
2018-Feb-20 12:00N 27°55' W 082°27'0 0.0
2018-Feb-20 11:30N 27°55' W 082°27'0 0.0
2018-Feb-20 10:59N 27°55' W 082°27'0 0.0
2018-Feb-20 10:30N 27°55' W 082°27'0 0.0
2018-Feb-20 10:01N 27°55' W 082°27'0 0.0
2018-Feb-20 09:30N 27°55' W 082°27'0 0.0
2018-Feb-20 09:00N 27°55' W 082°27'0 0.0
2018-Feb-20 08:30N 27°55' W 082°27'0 0.0
2018-Feb-20 08:00N 27°55' W 082°27'0 0.0
2018-Feb-20 07:30N 27°55' W 082°27'0 0.0
2018-Feb-20 07:00N 27°55' W 082°27'0 0.0
2018-Feb-20 06:28N 27°55' W 082°27'0 0.0
2018-Feb-20 06:01N 27°55' W 082°27'0 0.0
2018-Feb-20 05:30N 27°55' W 082°27'0 0.0
2018-Feb-20 05:00N 27°55' W 082°27'0 0.0
2018-Feb-20 04:31N 27°55' W 082°27'1 2.7
2018-Feb-20 04:00N 27°57' W 082°27'0 0.3
2018-Feb-20 03:30N 27°57' W 082°27'0 0.0
2018-Feb-20 03:00N 27°57' W 082°27'0 0.2
2018-Feb-20 02:30N 27°57' W 082°27'2 3.3
2018-Feb-20 02:00N 27°55' W 082°27'2 4.4
2018-Feb-20 01:31N 27°53' W 082°27'1 2.5
2018-Feb-20 01:00N 27°54' W 082°26'1 2.5
2018-Feb-20 00:30N 27°55' W 082°27'0 0.0
2018-Feb-19 23:59N 27°55' W 082°27'0 0.0
2018-Feb-19 23:30N 27°55' W 082°27'0 0.0
2018-Feb-19 22:58N 27°55' W 082°27'0 0.0
2018-Feb-19 22:26N 27°55' W 082°27'0 0.0
2018-Feb-19 22:01N 27°55' W 082°27'0 0.0
2018-Feb-19 21:30N 27°55' W 082°27'0 0.0
2018-Feb-19 21:01N 27°55' W 082°27'0 0.0
2018-Feb-19 20:30N 27°55' W 082°27'0 0.0
2018-Feb-19 20:00N 27°55' W 082°27'0 0.0
2018-Feb-19 19:29N 27°55' W 082°27'1 1.3
2018-Feb-19 19:00N 27°56' W 082°27'1 1.4
2018-Feb-19 18:30N 27°55' W 082°27'0 0.5
2018-Feb-19 18:01N 27°55' W 082°27'0 0.6
2018-Feb-19 17:31N 27°55' W 082°27'0 0.0
2018-Feb-19 17:00N 27°55' W 082°27'0 0.0
2018-Feb-19 16:30N 27°55' W 082°27'0 0.0
2018-Feb-19 16:00N 27°55' W 082°27'0 0.0
2018-Feb-19 15:30N 27°55' W 082°27'0 0.0
2018-Feb-19 14:58N 27°55' W 082°27'0 0.0
2018-Feb-19 14:27N 27°55' W 082°27'0 0.0
2018-Feb-19 14:01N 27°55' W 082°27'0 0.0
2018-Feb-19 13:30N 27°55' W 082°27'0 0.0
2018-Feb-19 13:00N 27°55' W 082°27'0 0.0
2018-Feb-19 12:30N 27°55' W 082°27'0 0.0
2018-Feb-19 12:00N 27°55' W 082°27'0 0.0
2018-Feb-19 11:31N 27°55' W 082°27'0 0.0
2018-Feb-19 11:00N 27°55' W 082°27'0 0.0
2018-Feb-19 10:30N 27°55' W 082°27'0 0.0
2018-Feb-19 10:01N 27°55' W 082°27'0 0.0
2018-Feb-19 09:30N 27°55' W 082°27'0 0.0
2018-Feb-19 09:00N 27°55' W 082°27'0 0.0
2018-Feb-19 08:30N 27°55' W 082°27'0 0.0
2018-Feb-19 07:59N 27°55' W 082°27'0 0.0
2018-Feb-19 07:29N 27°55' W 082°27'0 0.0
2018-Feb-19 07:00N 27°55' W 082°27'0 0.0
2018-Feb-19 06:30N 27°55' W 082°27'0 0.0
2018-Feb-19 05:59N 27°55' W 082°27'0 0.0
2018-Feb-19 05:30N 27°55' W 082°27'0 0.0
2018-Feb-19 05:00N 27°55' W 082°27'0 0.0
2018-Feb-19 04:30N 27°55' W 082°27'0 0.0
2018-Feb-19 04:00N 27°55' W 082°27'0 0.0
2018-Feb-19 03:29N 27°55' W 082°27'0 0.0
2018-Feb-19 03:00N 27°55' W 082°27'0 0.0
2018-Feb-19 02:30N 27°55' W 082°27'0 0.0
2018-Feb-19 02:00N 27°55' W 082°27'0 0.0
2018-Feb-19 01:30N 27°55' W 082°27'0 0.0
2018-Feb-19 01:00N 27°55' W 082°27'0 0.0
2018-Feb-19 00:30N 27°55' W 082°27'0 0.0
2018-Feb-19 00:01N 27°55' W 082°27'0 0.0
2018-Feb-18 23:30N 27°55' W 082°27'0 0.0
2018-Feb-18 22:59N 27°55' W 082°27'0 0.0
2018-Feb-18 22:30N 27°55' W 082°27'0 0.0
2018-Feb-18 21:57N 27°55' W 082°27'0 0.3
2018-Feb-18 21:30N 27°55' W 082°27'0 0.6
2018-Feb-18 21:00N 27°55' W 082°27'1 2.9
2018-Feb-18 20:30N 27°54' W 082°26'0 0.7
2018-Feb-18 20:00N 27°53' W 082°26'2 4.4
2018-Feb-18 19:30N 27°55' W 082°27'0 0.0
2018-Feb-18 19:00N 27°55' W 082°27'0 0.0
2018-Feb-18 18:30N 27°55' W 082°27'0 0.0
2018-Feb-18 18:00N 27°55' W 082°27'0 0.0
2018-Feb-18 17:30N 27°55' W 082°27'0 0.0
2018-Feb-18 17:01N 27°55' W 082°27'0 0.0
2018-Feb-18 16:31N 27°55' W 082°27'0 0.0
2018-Feb-18 16:00N 27°55' W 082°27'0 0.0
2018-Feb-18 15:30N 27°55' W 082°27'0 0.0
2018-Feb-18 14:59N 27°55' W 082°27'0 0.0
2018-Feb-18 14:31N 27°55' W 082°27'0 0.0
2018-Feb-18 14:00N 27°55' W 082°27'0 0.0
2018-Feb-18 13:30N 27°55' W 082°27'0 0.0
2018-Feb-18 13:01N 27°55' W 082°27'0 0.0
2018-Feb-18 12:28N 27°55' W 082°27'0 0.0
2018-Feb-18 12:00N 27°55' W 082°27'0 0.0
2018-Feb-18 11:30N 27°55' W 082°27'0 0.0
2018-Feb-18 11:00N 27°55' W 082°27'0 0.0
2018-Feb-18 10:31N 27°55' W 082°27'0 0.0
2018-Feb-18 10:00N 27°55' W 082°27'0 0.0
2018-Feb-18 09:30N 27°55' W 082°27'0 0.0
2018-Feb-18 09:00N 27°55' W 082°27'0 0.0
2018-Feb-18 08:30N 27°55' W 082°27'0 0.0
2018-Feb-18 08:00N 27°55' W 082°27'0 0.0
2018-Feb-18 07:30N 27°55' W 082°27'0 0.0
2018-Feb-18 07:00N 27°55' W 082°27'0 0.0
2018-Feb-18 06:30N 27°55' W 082°27'0 0.0
2018-Feb-18 06:00N 27°55' W 082°27'0 0.0
2018-Feb-18 05:30N 27°55' W 082°27'0 0.0
2018-Feb-18 05:00N 27°55' W 082°27'0 0.0
2018-Feb-18 04:30N 27°55' W 082°27'0 0.0
2018-Feb-18 04:00N 27°55' W 082°27'0 0.0
2018-Feb-18 03:30N 27°55' W 082°27'0 0.0
2018-Feb-18 03:00N 27°55' W 082°27'0 0.0
2018-Feb-18 02:30N 27°55' W 082°27'0 0.0
2018-Feb-18 02:00N 27°55' W 082°27'0 0.0
2018-Feb-18 01:30N 27°55' W 082°27'0 0.0
2018-Feb-18 01:00N 27°55' W 082°27'0 0.0
2018-Feb-18 00:30N 27°55' W 082°27'0 0.0
2018-Feb-17 23:59N 27°55' W 082°27'0 0.0
2018-Feb-17 23:30N 27°55' W 082°27'0 0.0
2018-Feb-17 23:01N 27°55' W 082°27'0 0.0
2018-Feb-17 22:30N 27°55' W 082°27'0 0.0
2018-Feb-17 22:00N 27°55' W 082°27'0 0.9
2018-Feb-17 21:30N 27°56' W 082°27'1 2.2
2018-Feb-17 21:00N 27°57' W 082°27'0 0.2
2018-Feb-17 20:31N 27°57' W 082°27'2 3.3
2018-Feb-17 20:00N 27°55' W 082°27'0 0.3
2018-Feb-17 19:30N 27°55' W 082°27'0 0.0
2018-Feb-17 19:00N 27°55' W 082°27'0 0.5
2018-Feb-17 18:30N 27°55' W 082°27'0 0.0
2018-Feb-17 17:59N 27°55' W 082°27'0 0.0
2018-Feb-17 17:29N 27°55' W 082°27'0 0.0
2018-Feb-17 17:01N 27°55' W 082°27'0 0.0
2018-Feb-17 16:30N 27°55' W 082°27'0 0.0
2018-Feb-17 16:00N 27°55' W 082°27'0 0.0
2018-Feb-17 15:30N 27°55' W 082°27'0 0.0
2018-Feb-17 15:00N 27°55' W 082°27'0 0.0
2018-Feb-17 14:30N 27°55' W 082°27'0 0.0
2018-Feb-17 14:00N 27°55' W 082°27'0 0.0
2018-Feb-17 13:29N 27°55' W 082°27'0 0.0
2018-Feb-17 12:59N 27°55' W 082°27'0 0.0
2018-Feb-17 12:30N 27°55' W 082°27'0 0.0
2018-Feb-17 12:00N 27°55' W 082°27'0 0.0
2018-Feb-17 11:30N 27°55' W 082°27'0 0.0
2018-Feb-17 11:00N 27°55' W 082°27'0 0.0
2018-Feb-17 10:30N 27°55' W 082°27'0 0.0
2018-Feb-17 10:00N 27°55' W 082°27'0 0.0
2018-Feb-17 09:30N 27°55' W 082°27'0 0.0
2018-Feb-17 09:00N 27°55' W 082°27'0 0.0
2018-Feb-17 08:30N 27°55' W 082°27'0 0.0
2018-Feb-17 07:58N 27°55' W 082°27'0 0.0
2018-Feb-17 07:30N 27°55' W 082°27'0 0.0
2018-Feb-17 07:00N 27°55' W 082°27'0 0.0
2018-Feb-17 06:30N 27°55' W 082°27'0 0.0
2018-Feb-17 06:00N 27°55' W 082°27'0 0.0
2018-Feb-17 05:30N 27°55' W 082°27'0 0.0
2018-Feb-17 05:00N 27°55' W 082°27'0 0.0
2018-Feb-17 04:30N 27°55' W 082°27'0 0.0
2018-Feb-17 03:59N 27°55' W 082°27'0 0.0
2018-Feb-17 03:30N 27°55' W 082°27'0 0.0
2018-Feb-17 03:00N 27°55' W 082°27'0 0.0
2018-Feb-17 02:30N 27°55' W 082°27'0 0.0
2018-Feb-17 02:00N 27°55' W 082°27'0 0.0
2018-Feb-17 01:30N 27°55' W 082°27'0 0.0
2018-Feb-17 01:00N 27°55' W 082°27'0 0.0
2018-Feb-17 00:30N 27°55' W 082°27'0 0.0
2018-Feb-16 23:59N 27°55' W 082°27'0 0.0
2018-Feb-16 23:31N 27°55' W 082°27'0 0.0
2018-Feb-16 23:01N 27°55' W 082°27'0 0.0
2018-Feb-16 22:30N 27°55' W 082°27'0 0.0
2018-Feb-16 22:00N 27°55' W 082°27'0 0.0
2018-Feb-16 21:30N 27°55' W 082°27'0 0.0
2018-Feb-16 21:00N 27°55' W 082°27'0 0.0
2018-Feb-16 20:30N 27°55' W 082°27'0 0.0
2018-Feb-16 20:00N 27°55' W 082°27'0 0.0
2018-Feb-16 19:30N 27°55' W 082°27'0 0.0
2018-Feb-16 19:00N 27°55' W 082°27'0 0.0
2018-Feb-16 18:30N 27°55' W 082°27'0 0.0
2018-Feb-16 17:59N 27°55' W 082°27'0 0.0
2018-Feb-16 17:30N 27°55' W 082°27'1 2.9
2018-Feb-16 17:00N 27°57' W 082°27'0 0.5
2018-Feb-16 16:30N 27°57' W 082°27'1 2.3
2018-Feb-16 16:00N 27°55' W 082°27'0 0.0
2018-Feb-16 15:31N 27°55' W 082°27'0 0.0
2018-Feb-16 15:01N 27°55' W 082°27'0 0.2
2018-Feb-16 14:30N 27°55' W 082°27'0 0.0
2018-Feb-16 14:01N 27°55' W 082°27'0 0.1
2018-Feb-16 13:30N 27°55' W 082°27'0 0.0
2018-Feb-16 13:00N 27°55' W 082°27'0 0.0
2018-Feb-16 12:29N 27°55' W 082°27'0 0.0
2018-Feb-16 11:59N 27°55' W 082°27'0 0.0
2018-Feb-16 11:30N 27°55' W 082°27'0 0.0
2018-Feb-16 10:59N 27°55' W 082°27'0 0.0
2018-Feb-16 10:31N 27°55' W 082°27'0 0.0
2018-Feb-16 10:00N 27°55' W 082°27'0 0.0
2018-Feb-16 09:30N 27°55' W 082°27'0 0.0
2018-Feb-16 09:00N 27°55' W 082°27'0 0.0
2018-Feb-16 08:30N 27°55' W 082°27'0 0.0
2018-Feb-16 08:00N 27°55' W 082°27'0 0.0
2018-Feb-16 07:30N 27°55' W 082°27'0 0.0
2018-Feb-16 07:00N 27°55' W 082°27'0 0.0
2018-Feb-16 06:30N 27°55' W 082°27'0 0.0
2018-Feb-16 05:57N 27°55' W 082°27'0 0.0
2018-Feb-16 05:29N 27°55' W 082°27'0 0.0
2018-Feb-16 05:00N 27°55' W 082°27'0 0.0
2018-Feb-16 04:30N 27°55' W 082°27'0 0.0
2018-Feb-16 04:00N 27°55' W 082°27'0 0.0
2018-Feb-16 03:30N 27°55' W 082°27'0 0.0
2018-Feb-16 03:00N 27°55' W 082°27'0 0.0
2018-Feb-16 02:30N 27°55' W 082°27'0 0.0
2018-Feb-16 01:58N 27°55' W 082°27'0 0.0
2018-Feb-16 01:30N 27°55' W 082°27'0 0.0
2018-Feb-16 01:01N 27°55' W 082°27'0 0.0
2018-Feb-16 00:31N 27°55' W 082°27'0 0.0
2018-Feb-16 00:00N 27°55' W 082°27'0 0.0
2018-Feb-15 23:30N 27°55' W 082°27'0 0.0
2018-Feb-15 22:58N 27°55' W 082°27'0 0.0
2018-Feb-15 22:30N 27°55' W 082°27'0 0.0
2018-Feb-15 22:00N 27°55' W 082°27'0 0.0
2018-Feb-15 21:30N 27°55' W 082°27'0 0.0
2018-Feb-15 21:00N 27°55' W 082°27'0 0.0
2018-Feb-15 20:30N 27°55' W 082°27'0 0.0
2018-Feb-15 20:00N 27°55' W 082°27'0 0.0
2018-Feb-15 19:30N 27°55' W 082°27'0 0.0
2018-Feb-15 19:01N 27°55' W 082°27'1 2.9
2018-Feb-15 18:30N 27°57' W 082°27'0 0.0
2018-Feb-15 18:00N 27°57' W 082°27'0 0.5
2018-Feb-15 17:29N 27°57' W 082°27'1 1.8
2018-Feb-15 17:00N 27°56' W 082°27'0 0.7
2018-Feb-15 16:29N 27°55' W 082°27'0 0.0
2018-Feb-15 16:00N 27°55' W 082°27'0 0.0
2018-Feb-15 15:30N 27°55' W 082°27'0 0.0
2018-Feb-15 15:00N 27°55' W 082°27'0 0.0
2018-Feb-15 14:30N 27°55' W 082°27'0 0.0
2018-Feb-15 14:00N 27°55' W 082°27'0 0.0
2018-Feb-15 13:30N 27°55' W 082°27'1 2.7
2018-Feb-15 13:01N 27°54' W 082°26'1 1.0
2018-Feb-15 12:30N 27°55' W 082°26'1 1.7
2018-Feb-15 12:00N 27°55' W 082°27'0 0.0
2018-Feb-15 11:29N 27°55' W 082°27'0 0.0
2018-Feb-15 10:59N 27°55' W 082°27'0 0.0
2018-Feb-15 10:30N 27°55' W 082°27'0 0.0
2018-Feb-15 10:00N 27°55' W 082°27'0 0.0
2018-Feb-15 09:30N 27°55' W 082°27'0 0.0
2018-Feb-15 09:00N 27°55' W 082°27'0 0.0
2018-Feb-15 08:30N 27°55' W 082°27'0 0.0
2018-Feb-15 08:00N 27°55' W 082°27'0 0.0
2018-Feb-15 07:30N 27°55' W 082°27'0 0.0
2018-Feb-15 07:00N 27°55' W 082°27'0 0.0
2018-Feb-15 06:30N 27°55' W 082°27'0 0.0
2018-Feb-15 06:00N 27°55' W 082°27'0 0.0
2018-Feb-15 05:30N 27°55' W 082°27'0 0.0
2018-Feb-15 05:00N 27°55' W 082°27'0 0.0
2018-Feb-15 04:30N 27°55' W 082°27'0 0.0
2018-Feb-15 04:00N 27°55' W 082°27'0 0.0
2018-Feb-15 03:31N 27°55' W 082°27'0 0.0
2018-Feb-15 03:01N 27°55' W 082°27'1 1.3
2018-Feb-15 02:30N 27°55' W 082°27'1 2.3
2018-Feb-15 02:01N 27°56' W 082°26'0 0.1
2018-Feb-15 01:30N 27°56' W 082°26'1 1.3
2018-Feb-15 01:00N 27°55' W 082°25'0 0.0
2018-Feb-15 00:30N 27°55' W 082°25'4 7.1
2018-Feb-15 00:00N 27°52' W 082°27'510.0
2018-Feb-14 23:30N 27°48' W 082°30'4 7.6
2018-Feb-14 22:56N 27°50' W 082°34'2 4.8
2018-Feb-14 22:30N 27°52' W 082°33'0 0.0
2018-Feb-14 22:00N 27°52' W 082°33'0 0.0
2018-Feb-14 21:29N 27°52' W 082°33'0 0.0
2018-Feb-14 21:01N 27°52' W 082°33'0 0.0
2018-Feb-14 20:30N 27°52' W 082°33'0 0.0
2018-Feb-14 20:00N 27°52' W 082°33'0 0.0
2018-Feb-14 19:30N 27°52' W 082°33'0 0.0
2018-Feb-14 19:00N 27°52' W 082°33'0 0.0
2018-Feb-14 18:30N 27°52' W 082°33'0 0.0
2018-Feb-14 17:57N 27°52' W 082°33'0 0.0
2018-Feb-14 17:30N 27°52' W 082°33'0 0.0
2018-Feb-14 17:00N 27°52' W 082°33'0 0.0
2018-Feb-14 16:30N 27°52' W 082°33'0 0.0
2018-Feb-14 16:00N 27°52' W 082°33'0 0.0
2018-Feb-14 15:30N 27°52' W 082°33'0 0.0
2018-Feb-14 14:59N 27°52' W 082°33'0 0.6
2018-Feb-14 14:29N 27°52' W 082°33'0 0.3
2018-Feb-14 13:58N 27°52' W 082°33'6 5.2
2018-Feb-14 12:49N 27°49' W 082°27'310.8
2018-Feb-14 12:30N 27°52' W 082°27'3 6.3
2018-Feb-14 12:00N 27°55' W 082°27'0 0.0
2018-Feb-14 11:30N 27°55' W 082°27'0 0.0
2018-Feb-14 11:00N 27°55' W 082°27'0 0.0
2018-Feb-14 10:30N 27°55' W 082°27'0 0.0
2018-Feb-14 10:00N 27°55' W 082°27'0 0.0
2018-Feb-14 09:30N 27°55' W 082°27'0 0.0
2018-Feb-14 09:00N 27°55' W 082°27'0 0.0
2018-Feb-14 08:30N 27°55' W 082°27'0 0.0
2018-Feb-14 08:00N 27°55' W 082°27'0 0.0
2018-Feb-14 07:31N 27°55' W 082°27'0 0.0
2018-Feb-14 07:01N 27°55' W 082°27'0 0.0
2018-Feb-14 06:30N 27°55' W 082°27'  
Track history (hours):
 
Tides and Currents Weather Stations Pressure Air Temp Water Temp Dewpoint Dewpoint Depression Visibility Wind Speed Wind Dir Waves Ship Positions

Athena

Owner: Seabulk Towing Inc., Fort Lauderdale, FL. More information available from US FCC via Universal Licensing System and Coast Guard Vessel Documentation Center.

Last reported at 2018-Feb-24 06:30 UTC. Time now 2018-Feb-24 06:45 UTC.
Position N 27°55' W 082°27'.

; draft 6 m.

Type: Tug. MMSI: 367561460.

Date/timePositionNaut miles runAvg speedWind from/ knotsBaromVisibWave heightAir tempDewpointWater temp
2018-Feb-24 06:30N 27°55' W 082°27'0 0.0
2018-Feb-24 06:00N 27°55' W 082°27'0 0.0
2018-Feb-24 05:30N 27°55' W 082°27'0 0.0
2018-Feb-24 04:59N 27°55' W 082°27'0 0.0
2018-Feb-24 04:30N 27°55' W 082°27'0 0.0
2018-Feb-24 04:01N 27°55' W 082°27'0 0.0
2018-Feb-24 03:30N 27°55' W 082°27'0 0.0
2018-Feb-24 03:00N 27°55' W 082°27'0 0.0
2018-Feb-24 02:30N 27°55' W 082°27'0 0.0
2018-Feb-24 02:01N 27°55' W 082°27'0 0.0
2018-Feb-24 01:30N 27°55' W 082°27'0 0.0
2018-Feb-24 01:00N 27°55' W 082°27'2 3.3
2018-Feb-24 00:30N 27°54' W 082°25'0 0.0
2018-Feb-24 00:01N 27°54' W 082°25'0 0.8
2018-Feb-23 23:30N 27°54' W 082°26'2 3.1
2018-Feb-23 23:00N 27°53' W 082°27'1 2.4
2018-Feb-23 22:30N 27°54' W 082°26'1 2.9
2018-Feb-23 22:00N 27°55' W 082°27'0 0.0
2018-Feb-23 21:30N 27°55' W 082°27'0 0.0
2018-Feb-23 20:58N 27°55' W 082°27'0 0.0
2018-Feb-23 20:30N 27°55' W 082°27'0 0.0
2018-Feb-23 20:00N 27°55' W 082°27'0 0.0
2018-Feb-23 19:31N 27°55' W 082°27'0 0.0
2018-Feb-23 19:01N 27°55' W 082°27'1 1.9
2018-Feb-23 18:30N 27°55' W 082°26'0 0.0
2018-Feb-23 18:00N 27°55' W 082°26'0 0.0
2018-Feb-23 17:30N 27°55' W 082°26'0 0.0
2018-Feb-23 17:00N 27°55' W 082°26'0 0.0
2018-Feb-23 16:30N 27°55' W 082°26'0 0.0
2018-Feb-23 16:00N 27°55' W 082°26'1 2.0
2018-Feb-23 15:30N 27°54' W 082°26'1 2.4
2018-Feb-23 15:01N 27°55' W 082°27'0 0.0
2018-Feb-23 14:31N 27°55' W 082°27'0 0.0
2018-Feb-23 14:01N 27°55' W 082°27'0 0.0
2018-Feb-23 13:30N 27°55' W 082°27'0 0.0
2018-Feb-23 13:00N 27°55' W 082°27'0 0.0
2018-Feb-23 12:30N 27°55' W 082°27'0 0.0
2018-Feb-23 12:01N 27°55' W 082°27'0 0.0
2018-Feb-23 11:30N 27°55' W 082°27'0 0.0
2018-Feb-23 11:00N 27°55' W 082°27'1 2.9
2018-Feb-23 10:31N 27°57' W 082°27'0 0.2
2018-Feb-23 10:01N 27°57' W 082°27'2 3.5
2018-Feb-23 09:31N 27°55' W 082°27'2 3.8
2018-Feb-23 09:01N 27°53' W 082°26'2 4.4
2018-Feb-23 08:29N 27°55' W 082°27'0 0.0
2018-Feb-23 08:00N 27°55' W 082°27'0 0.0
2018-Feb-23 07:30N 27°55' W 082°27'0 0.0
2018-Feb-23 07:00N 27°55' W 082°27'0 0.0
2018-Feb-23 06:31N 27°55' W 082°27'0 0.0
2018-Feb-23 05:59N 27°55' W 082°27'0 0.0
2018-Feb-23 05:30N 27°55' W 082°27'0 0.0
2018-Feb-23 05:00N 27°55' W 082°27'0 0.0
2018-Feb-23 04:30N 27°55' W 082°27'0 0.0
2018-Feb-23 04:00N 27°55' W 082°27'0 0.0
2018-Feb-23 03:30N 27°55' W 082°27'0 0.0
2018-Feb-23 03:00N 27°55' W 082°27'1 2.2
2018-Feb-23 02:30N 27°54' W 082°26'510.2
2018-Feb-23 01:59N 27°49' W 082°27'2 2.9
2018-Feb-23 01:12N 27°48' W 082°24'0 0.4
2018-Feb-23 00:58N 27°48' W 082°24'0 0.0
2018-Feb-23 00:29N 27°48' W 082°24'0 0.0
2018-Feb-23 00:00N 27°48' W 082°24'0 0.0
2018-Feb-22 23:28N 27°48' W 082°24'0 0.0
2018-Feb-22 23:00N 27°48' W 082°24'0 0.0
2018-Feb-22 22:28N 27°48' W 082°24'0 0.0
2018-Feb-22 20:35N 27°48' W 082°24'0 0.0
2018-Feb-22 20:25N 27°48' W 082°24'0 0.0
2018-Feb-22 19:59N 27°48' W 082°24'0 0.0
2018-Feb-22 19:30N 27°48' W 082°24'0 0.0
2018-Feb-22 18:56N 27°48' W 082°24'0 0.0
2018-Feb-22 18:29N 27°48' W 082°24'0 0.0
2018-Feb-22 17:58N 27°48' W 082°24'0 0.0
2018-Feb-22 17:30N 27°48' W 082°24'0 0.0
2018-Feb-22 16:47N 27°48' W 082°24'0 0.0
2018-Feb-22 16:24N 27°48' W 082°24'0 0.0
2018-Feb-22 15:58N 27°48' W 082°24'0 0.0
2018-Feb-22 15:21N 27°48' W 082°24'0 0.0
2018-Feb-22 14:58N 27°48' W 082°24'0 0.0
2018-Feb-22 14:23N 27°48' W 082°24'0 0.0
2018-Feb-22 13:58N 27°48' W 082°24'0 0.0
2018-Feb-22 12:32N 27°48' W 082°24'0 0.0
2018-Feb-22 12:13N 27°48' W 082°24'0 0.0
2018-Feb-22 11:49N 27°48' W 082°24'0 0.0
2018-Feb-22 11:28N 27°48' W 082°24'0 0.0
2018-Feb-22 11:01N 27°48' W 082°24'0 0.0
2018-Feb-22 10:30N 27°48' W 082°24'0 0.1
2018-Feb-22 09:54N 27°48' W 082°25'0 0.6
2018-Feb-22 09:15N 27°48' W 082°25'2 5.7
2018-Feb-22 08:56N 27°49' W 082°27'2 3.4
2018-Feb-22 08:17N 27°48' W 082°24'0 0.0
2018-Feb-22 08:00N 27°48' W 082°24'0 0.0
2018-Feb-22 07:30N 27°48' W 082°24'0 0.0
2018-Feb-22 07:00N 27°48' W 082°24'0 0.0
2018-Feb-22 06:29N 27°48' W 082°24'0 0.0
2018-Feb-22 06:00N 27°48' W 082°24'1 1.0
2018-Feb-22 05:29N 27°48' W 082°25'3 3.5
2018-Feb-22 04:35N 27°51' W 082°24'0 1.7
2018-Feb-22 04:31N 27°51' W 082°24'3 5.4
2018-Feb-22 04:00N 27°51' W 082°27'1 1.5
2018-Feb-22 03:30N 27°51' W 082°27'3 6.1
2018-Feb-22 02:59N 27°55' W 082°26'1 1.6
2018-Feb-22 02:30N 27°55' W 082°27'0 0.0
2018-Feb-22 02:00N 27°55' W 082°27'0 0.0
2018-Feb-22 01:30N 27°55' W 082°27'0 0.0
2018-Feb-22 01:00N 27°55' W 082°27'0 0.0
2018-Feb-22 00:30N 27°55' W 082°27'0 0.0
2018-Feb-22 00:01N 27°55' W 082°27'0 0.0
2018-Feb-21 23:30N 27°55' W 082°27'0 0.0
2018-Feb-21 23:00N 27°55' W 082°27'0 0.0
2018-Feb-21 22:30N 27°55' W 082°27'0 0.0
2018-Feb-21 22:00N 27°55' W 082°27'0 0.0
2018-Feb-21 21:31N 27°55' W 082°27'0 0.0
2018-Feb-21 20:57N 27°55' W 082°27'0 0.0
2018-Feb-21 20:29N 27°55' W 082°27'0 0.0
2018-Feb-21 20:00N 27°55' W 082°27'0 0.0
2018-Feb-21 19:30N 27°55' W 082°27'0 0.0
2018-Feb-21 18:58N 27°55' W 082°27'0 0.0
2018-Feb-21 18:30N 27°55' W 082°27'0 0.0
2018-Feb-21 18:00N 27°55' W 082°27'0 0.0
2018-Feb-21 17:30N 27°55' W 082°27'0 0.0
2018-Feb-21 17:00N 27°55' W 082°27'0 0.0
2018-Feb-21 16:31N 27°55' W 082°27'0 0.0
2018-Feb-21 16:00N 27°55' W 082°27'0 0.0
2018-Feb-21 15:30N 27°55' W 082°27'0 0.0
2018-Feb-21 15:00N 27°55' W 082°27'0 0.0
2018-Feb-21 14:30N 27°55' W 082°27'0 0.0
2018-Feb-21 13:58N 27°55' W 082°27'0 0.0
2018-Feb-21 13:28N 27°55' W 082°27'0 0.0
2018-Feb-21 13:00N 27°55' W 082°27'0 0.0
2018-Feb-21 12:31N 27°55' W 082°27'0 0.0
2018-Feb-21 12:00N 27°55' W 082°27'0 0.0
2018-Feb-21 11:30N 27°55' W 082°27'0 0.0
2018-Feb-21 11:00N 27°55' W 082°27'0 0.0
2018-Feb-21 10:30N 27°55' W 082°27'0 0.0
2018-Feb-21 10:00N 27°55' W 082°27'0 0.0
2018-Feb-21 09:31N 27°55' W 082°27'0 0.0
2018-Feb-21 09:00N 27°55' W 082°27'0 0.0
2018-Feb-21 08:31N 27°55' W 082°27'0 0.0
2018-Feb-21 07:59N 27°55' W 082°27'0 0.0
2018-Feb-21 07:29N 27°55' W 082°27'0 0.0
2018-Feb-21 06:59N 27°55' W 082°27'0 0.0
2018-Feb-21 06:30N 27°55' W 082°27'0 0.0
2018-Feb-21 06:01N 27°55' W 082°27'0 0.0
2018-Feb-21 05:30N 27°55' W 082°27'0 0.0
2018-Feb-21 05:00N 27°55' W 082°27'0 0.0
2018-Feb-21 04:30N 27°55' W 082°27'0 0.0
2018-Feb-21 04:01N 27°55' W 082°27'0 0.0
2018-Feb-21 03:30N 27°55' W 082°27'1 2.4
2018-Feb-21 03:00N 27°55' W 082°26'1 1.1
2018-Feb-21 02:30N 27°55' W 082°25'1 2.8
2018-Feb-21 02:00N 27°54' W 082°26'1 2.7
2018-Feb-21 01:30N 27°55' W 082°27'1 2.2
2018-Feb-21 01:00N 27°55' W 082°26'1 1.8
2018-Feb-21 00:30N 27°56' W 082°26'1 1.5
2018-Feb-21 00:00N 27°55' W 082°26'2 4.6
2018-Feb-20 23:30N 27°53' W 082°27'3 5.1
2018-Feb-20 23:00N 27°55' W 082°27'0 0.0
2018-Feb-20 22:30N 27°55' W 082°27'0 0.0
2018-Feb-20 21:59N 27°55' W 082°27'0 0.0
2018-Feb-20 21:30N 27°55' W 082°27'0 0.0
2018-Feb-20 20:57N 27°55' W 082°27'0 0.0
2018-Feb-20 20:29N 27°55' W 082°27'0 0.0
2018-Feb-20 20:00N 27°55' W 082°27'0 0.0
2018-Feb-20 19:30N 27°55' W 082°27'0 0.0
2018-Feb-20 19:01N 27°55' W 082°27'0 0.0
2018-Feb-20 18:31N 27°55' W 082°27'0 0.0
2018-Feb-20 18:00N 27°55' W 082°27'0 0.0
2018-Feb-20 17:29N 27°55' W 082°27'0 0.0
2018-Feb-20 17:01N 27°55' W 082°27'0 0.0
2018-Feb-20 16:30N 27°55' W 082°27'0 0.0
2018-Feb-20 15:59N 27°55' W 082°27'0 0.0
2018-Feb-20 15:30N 27°55' W 082°27'0 0.0
2018-Feb-20 15:00N 27°55' W 082°27'0 1.0
2018-Feb-20 14:30N 27°55' W 082°27'0 0.3
2018-Feb-20 14:00N 27°55' W 082°27'0 0.7
2018-Feb-20 13:30N 27°55' W 082°27'0 0.0
2018-Feb-20 12:59N 27°55' W 082°27'0 0.0
2018-Feb-20 12:30N 27°55' W 082°27'0 0.0
2018-Feb-20 12:00N 27°55' W 082°27'0 0.0
2018-Feb-20 11:30N 27°55' W 082°27'0 0.0
2018-Feb-20 10:59N 27°55' W 082°27'0 0.0
2018-Feb-20 10:30N 27°55' W 082°27'0 0.0
2018-Feb-20 10:01N 27°55' W 082°27'0 0.0
2018-Feb-20 09:30N 27°55' W 082°27'0 0.0
2018-Feb-20 09:00N 27°55' W 082°27'0 0.0
2018-Feb-20 08:30N 27°55' W 082°27'0 0.0
2018-Feb-20 08:00N 27°55' W 082°27'0 0.0
2018-Feb-20 07:30N 27°55' W 082°27'0 0.0
2018-Feb-20 07:00N 27°55' W 082°27'0 0.0
2018-Feb-20 06:28N 27°55' W 082°27'0 0.0
2018-Feb-20 06:01N 27°55' W 082°27'0 0.0
2018-Feb-20 05:30N 27°55' W 082°27'0 0.0
2018-Feb-20 05:00N 27°55' W 082°27'0 0.0
2018-Feb-20 04:31N 27°55' W 082°27'1 2.7
2018-Feb-20 04:00N 27°57' W 082°27'0 0.3
2018-Feb-20 03:30N 27°57' W 082°27'0 0.0
2018-Feb-20 03:00N 27°57' W 082°27'0 0.2
2018-Feb-20 02:30N 27°57' W 082°27'2 3.3
2018-Feb-20 02:00N 27°55' W 082°27'2 4.4
2018-Feb-20 01:31N 27°53' W 082°27'1 2.5
2018-Feb-20 01:00N 27°54' W 082°26'1 2.5
2018-Feb-20 00:30N 27°55' W 082°27'0 0.0
2018-Feb-19 23:59N 27°55' W 082°27'0 0.0
2018-Feb-19 23:30N 27°55' W 082°27'0 0.0
2018-Feb-19 22:58N 27°55' W 082°27'0 0.0
2018-Feb-19 22:26N 27°55' W 082°27'0 0.0
2018-Feb-19 22:01N 27°55' W 082°27'0 0.0
2018-Feb-19 21:30N 27°55' W 082°27'0 0.0
2018-Feb-19 21:01N 27°55' W 082°27'0 0.0
2018-Feb-19 20:30N 27°55' W 082°27'0 0.0
2018-Feb-19 20:00N 27°55' W 082°27'0 0.0
2018-Feb-19 19:29N 27°55' W 082°27'1 1.3
2018-Feb-19 19:00N 27°56' W 082°27'1 1.4
2018-Feb-19 18:30N 27°55' W 082°27'0 0.5
2018-Feb-19 18:01N 27°55' W 082°27'0 0.6
2018-Feb-19 17:31N 27°55' W 082°27'0 0.0
2018-Feb-19 17:00N 27°55' W 082°27'0 0.0
2018-Feb-19 16:30N 27°55' W 082°27'0 0.0
2018-Feb-19 16:00N 27°55' W 082°27'0 0.0
2018-Feb-19 15:30N 27°55' W 082°27'0 0.0
2018-Feb-19 14:58N 27°55' W 082°27'0 0.0
2018-Feb-19 14:27N 27°55' W 082°27'0 0.0
2018-Feb-19 14:01N 27°55' W 082°27'0 0.0
2018-Feb-19 13:30N 27°55' W 082°27'0 0.0
2018-Feb-19 13:00N 27°55' W 082°27'0 0.0
2018-Feb-19 12:30N 27°55' W 082°27'0 0.0
2018-Feb-19 12:00N 27°55' W 082°27'0 0.0
2018-Feb-19 11:31N 27°55' W 082°27'0 0.0
2018-Feb-19 11:00N 27°55' W 082°27'0 0.0
2018-Feb-19 10:30N 27°55' W 082°27'0 0.0
2018-Feb-19 10:01N 27°55' W 082°27'0 0.0
2018-Feb-19 09:30N 27°55' W 082°27'0 0.0
2018-Feb-19 09:00N 27°55' W 082°27'0 0.0
2018-Feb-19 08:30N 27°55' W 082°27'0 0.0
2018-Feb-19 07:59N 27°55' W 082°27'0 0.0
2018-Feb-19 07:29N 27°55' W 082°27'0 0.0
2018-Feb-19 07:00N 27°55' W 082°27'0 0.0
2018-Feb-19 06:30N 27°55' W 082°27'0 0.0
2018-Feb-19 05:59N 27°55' W 082°27'0 0.0
2018-Feb-19 05:30N 27°55' W 082°27'0 0.0
2018-Feb-19 05:00N 27°55' W 082°27'0 0.0
2018-Feb-19 04:30N 27°55' W 082°27'0 0.0
2018-Feb-19 04:00N 27°55' W 082°27'0 0.0
2018-Feb-19 03:29N 27°55' W 082°27'0 0.0
2018-Feb-19 03:00N 27°55' W 082°27'0 0.0
2018-Feb-19 02:30N 27°55' W 082°27'0 0.0
2018-Feb-19 02:00N 27°55' W 082°27'0 0.0
2018-Feb-19 01:30N 27°55' W 082°27'0 0.0
2018-Feb-19 01:00N 27°55' W 082°27'0 0.0
2018-Feb-19 00:30N 27°55' W 082°27'0 0.0
2018-Feb-19 00:01N 27°55' W 082°27'0 0.0
2018-Feb-18 23:30N 27°55' W 082°27'0 0.0
2018-Feb-18 22:59N 27°55' W 082°27'0 0.0
2018-Feb-18 22:30N 27°55' W 082°27'0 0.0
2018-Feb-18 21:57N 27°55' W 082°27'0 0.3
2018-Feb-18 21:30N 27°55' W 082°27'0 0.6
2018-Feb-18 21:00N 27°55' W 082°27'1 2.9
2018-Feb-18 20:30N 27°54' W 082°26'0 0.7
2018-Feb-18 20:00N 27°53' W 082°26'2 4.4
2018-Feb-18 19:30N 27°55' W 082°27'0 0.0
2018-Feb-18 19:00N 27°55' W 082°27'0 0.0
2018-Feb-18 18:30N 27°55' W 082°27'0 0.0
2018-Feb-18 18:00N 27°55' W 082°27'0 0.0
2018-Feb-18 17:30N 27°55' W 082°27'0 0.0
2018-Feb-18 17:01N 27°55' W 082°27'0 0.0
2018-Feb-18 16:31N 27°55' W 082°27'0 0.0
2018-Feb-18 16:00N 27°55' W 082°27'0 0.0
2018-Feb-18 15:30N 27°55' W 082°27'0 0.0
2018-Feb-18 14:59N 27°55' W 082°27'0 0.0
2018-Feb-18 14:31N 27°55' W 082°27'0 0.0
2018-Feb-18 14:00N 27°55' W 082°27'0 0.0
2018-Feb-18 13:30N 27°55' W 082°27'0 0.0
2018-Feb-18 13:01N 27°55' W 082°27'0 0.0
2018-Feb-18 12:28N 27°55' W 082°27'0 0.0
2018-Feb-18 12:00N 27°55' W 082°27'0 0.0
2018-Feb-18 11:30N 27°55' W 082°27'0 0.0
2018-Feb-18 11:00N 27°55' W 082°27'0 0.0
2018-Feb-18 10:31N 27°55' W 082°27'0 0.0
2018-Feb-18 10:00N 27°55' W 082°27'0 0.0
2018-Feb-18 09:30N 27°55' W 082°27'0 0.0
2018-Feb-18 09:00N 27°55' W 082°27'0 0.0
2018-Feb-18 08:30N 27°55' W 082°27'0 0.0
2018-Feb-18 08:00N 27°55' W 082°27'0 0.0
2018-Feb-18 07:30N 27°55' W 082°27'0 0.0
2018-Feb-18 07:00N 27°55' W 082°27'0 0.0
2018-Feb-18 06:30N 27°55' W 082°27'0 0.0
2018-Feb-18 06:00N 27°55' W 082°27'0 0.0
2018-Feb-18 05:30N 27°55' W 082°27'0 0.0
2018-Feb-18 05:00N 27°55' W 082°27'0 0.0
2018-Feb-18 04:30N 27°55' W 082°27'0 0.0
2018-Feb-18 04:00N 27°55' W 082°27'0 0.0
2018-Feb-18 03:30N 27°55' W 082°27'0 0.0
2018-Feb-18 03:00N 27°55' W 082°27'0 0.0
2018-Feb-18 02:30N 27°55' W 082°27'0 0.0
2018-Feb-18 02:00N 27°55' W 082°27'0 0.0
2018-Feb-18 01:30N 27°55' W 082°27'0 0.0
2018-Feb-18 01:00N 27°55' W 082°27'0 0.0
2018-Feb-18 00:30N 27°55' W 082°27'0 0.0
2018-Feb-17 23:59N 27°55' W 082°27'0 0.0
2018-Feb-17 23:30N 27°55' W 082°27'0 0.0
2018-Feb-17 23:01N 27°55' W 082°27'0 0.0
2018-Feb-17 22:30N 27°55' W 082°27'0 0.0
2018-Feb-17 22:00N 27°55' W 082°27'0 0.9
2018-Feb-17 21:30N 27°56' W 082°27'1 2.2
2018-Feb-17 21:00N 27°57' W 082°27'0 0.2
2018-Feb-17 20:31N 27°57' W 082°27'2 3.3
2018-Feb-17 20:00N 27°55' W 082°27'0 0.3
2018-Feb-17 19:30N 27°55' W 082°27'0 0.0
2018-Feb-17 19:00N 27°55' W 082°27'0 0.5
2018-Feb-17 18:30N 27°55' W 082°27'0 0.0
2018-Feb-17 17:59N 27°55' W 082°27'0 0.0
2018-Feb-17 17:29N 27°55' W 082°27'0 0.0
2018-Feb-17 17:01N 27°55' W 082°27'0 0.0
2018-Feb-17 16:30N 27°55' W 082°27'0 0.0
2018-Feb-17 16:00N 27°55' W 082°27'0 0.0
2018-Feb-17 15:30N 27°55' W 082°27'0 0.0
2018-Feb-17 15:00N 27°55' W 082°27'0 0.0
2018-Feb-17 14:30N 27°55' W 082°27'0 0.0
2018-Feb-17 14:00N 27°55' W 082°27'0 0.0
2018-Feb-17 13:29N 27°55' W 082°27'0 0.0
2018-Feb-17 12:59N 27°55' W 082°27'0 0.0
2018-Feb-17 12:30N 27°55' W 082°27'0 0.0
2018-Feb-17 12:00N 27°55' W 082°27'0 0.0
2018-Feb-17 11:30N 27°55' W 082°27'0 0.0
2018-Feb-17 11:00N 27°55' W 082°27'0 0.0
2018-Feb-17 10:30N 27°55' W 082°27'0 0.0
2018-Feb-17 10:00N 27°55' W 082°27'0 0.0
2018-Feb-17 09:30N 27°55' W 082°27'0 0.0
2018-Feb-17 09:00N 27°55' W 082°27'0 0.0
2018-Feb-17 08:30N 27°55' W 082°27'0 0.0
2018-Feb-17 07:58N 27°55' W 082°27'0 0.0
2018-Feb-17 07:30N 27°55' W 082°27'0 0.0
2018-Feb-17 07:00N 27°55' W 082°27'0 0.0
2018-Feb-17 06:30N 27°55' W 082°27'0 0.0
2018-Feb-17 06:00N 27°55' W 082°27'0 0.0
2018-Feb-17 05:30N 27°55' W 082°27'0 0.0
2018-Feb-17 05:00N 27°55' W 082°27'0 0.0
2018-Feb-17 04:30N 27°55' W 082°27'0 0.0
2018-Feb-17 03:59N 27°55' W 082°27'0 0.0
2018-Feb-17 03:30N 27°55' W 082°27'0 0.0
2018-Feb-17 03:00N 27°55' W 082°27'0 0.0
2018-Feb-17 02:30N 27°55' W 082°27'0 0.0
2018-Feb-17 02:00N 27°55' W 082°27'0 0.0
2018-Feb-17 01:30N 27°55' W 082°27'0 0.0
2018-Feb-17 01:00N 27°55' W 082°27'0 0.0
2018-Feb-17 00:30N 27°55' W 082°27'0 0.0
2018-Feb-16 23:59N 27°55' W 082°27'0 0.0
2018-Feb-16 23:31N 27°55' W 082°27'0 0.0
2018-Feb-16 23:01N 27°55' W 082°27'0 0.0
2018-Feb-16 22:30N 27°55' W 082°27'0 0.0
2018-Feb-16 22:00N 27°55' W 082°27'0 0.0
2018-Feb-16 21:30N 27°55' W 082°27'0 0.0
2018-Feb-16 21:00N 27°55' W 082°27'0 0.0
2018-Feb-16 20:30N 27°55' W 082°27'0 0.0
2018-Feb-16 20:00N 27°55' W 082°27'0 0.0
2018-Feb-16 19:30N 27°55' W 082°27'0 0.0
2018-Feb-16 19:00N 27°55' W 082°27'0 0.0
2018-Feb-16 18:30N 27°55' W 082°27'0 0.0
2018-Feb-16 17:59N 27°55' W 082°27'0 0.0
2018-Feb-16 17:30N 27°55' W 082°27'1 2.9
2018-Feb-16 17:00N 27°57' W 082°27'0 0.5
2018-Feb-16 16:30N 27°57' W 082°27'1 2.3
2018-Feb-16 16:00N 27°55' W 082°27'0 0.0
2018-Feb-16 15:31N 27°55' W 082°27'0 0.0
2018-Feb-16 15:01N 27°55' W 082°27'0 0.2
2018-Feb-16 14:30N 27°55' W 082°27'0 0.0
2018-Feb-16 14:01N 27°55' W 082°27'0 0.1
2018-Feb-16 13:30N 27°55' W 082°27'0 0.0
2018-Feb-16 13:00N 27°55' W 082°27'0 0.0
2018-Feb-16 12:29N 27°55' W 082°27'0 0.0
2018-Feb-16 11:59N 27°55' W 082°27'0 0.0
2018-Feb-16 11:30N 27°55' W 082°27'0 0.0
2018-Feb-16 10:59N 27°55' W 082°27'0 0.0
2018-Feb-16 10:31N 27°55' W 082°27'0 0.0
2018-Feb-16 10:00N 27°55' W 082°27'0 0.0
2018-Feb-16 09:30N 27°55' W 082°27'0 0.0
2018-Feb-16 09:00N 27°55' W 082°27'0 0.0
2018-Feb-16 08:30N 27°55' W 082°27'0 0.0
2018-Feb-16 08:00N 27°55' W 082°27'0 0.0
2018-Feb-16 07:30N 27°55' W 082°27'0 0.0
2018-Feb-16 07:00N 27°55' W 082°27'0 0.0
2018-Feb-16 06:30N 27°55' W 082°27'0 0.0
2018-Feb-16 05:57N 27°55' W 082°27'0 0.0
2018-Feb-16 05:29N 27°55' W 082°27'0 0.0
2018-Feb-16 05:00N 27°55' W 082°27'0 0.0
2018-Feb-16 04:30N 27°55' W 082°27'0 0.0
2018-Feb-16 04:00N 27°55' W 082°27'0 0.0
2018-Feb-16 03:30N 27°55' W 082°27'0 0.0
2018-Feb-16 03:00N 27°55' W 082°27'0 0.0
2018-Feb-16 02:30N 27°55' W 082°27'0 0.0
2018-Feb-16 01:58N 27°55' W 082°27'0 0.0
2018-Feb-16 01:30N 27°55' W 082°27'0 0.0
2018-Feb-16 01:01N 27°55' W 082°27'0 0.0
2018-Feb-16 00:31N 27°55' W 082°27'0 0.0
2018-Feb-16 00:00N 27°55' W 082°27'0 0.0
2018-Feb-15 23:30N 27°55' W 082°27'0 0.0
2018-Feb-15 22:58N 27°55' W 082°27'0 0.0
2018-Feb-15 22:30N 27°55' W 082°27'0 0.0
2018-Feb-15 22:00N 27°55' W 082°27'0 0.0
2018-Feb-15 21:30N 27°55' W 082°27'0 0.0
2018-Feb-15 21:00N 27°55' W 082°27'0 0.0
2018-Feb-15 20:30N 27°55' W 082°27'0 0.0
2018-Feb-15 20:00N 27°55' W 082°27'0 0.0
2018-Feb-15 19:30N 27°55' W 082°27'0 0.0
2018-Feb-15 19:01N 27°55' W 082°27'1 2.9
2018-Feb-15 18:30N 27°57' W 082°27'0 0.0
2018-Feb-15 18:00N 27°57' W 082°27'0 0.5
2018-Feb-15 17:29N 27°57' W 082°27'1 1.8
2018-Feb-15 17:00N 27°56' W 082°27'0 0.7
2018-Feb-15 16:29N 27°55' W 082°27'0 0.0
2018-Feb-15 16:00N 27°55' W 082°27'0 0.0
2018-Feb-15 15:30N 27°55' W 082°27'0 0.0
2018-Feb-15 15:00N 27°55' W 082°27'0 0.0
2018-Feb-15 14:30N 27°55' W 082°27'0 0.0
2018-Feb-15 14:00N 27°55' W 082°27'0 0.0
2018-Feb-15 13:30N 27°55' W 082°27'1 2.7
2018-Feb-15 13:01N 27°54' W 082°26'1 1.0
2018-Feb-15 12:30N 27°55' W 082°26'1 1.7
2018-Feb-15 12:00N 27°55' W 082°27'0 0.0
2018-Feb-15 11:29N 27°55' W 082°27'0 0.0
2018-Feb-15 10:59N 27°55' W 082°27'0 0.0
2018-Feb-15 10:30N 27°55' W 082°27'0 0.0
2018-Feb-15 10:00N 27°55' W 082°27'0 0.0
2018-Feb-15 09:30N 27°55' W 082°27'0 0.0
2018-Feb-15 09:00N 27°55' W 082°27'0 0.0
2018-Feb-15 08:30N 27°55' W 082°27'0 0.0
2018-Feb-15 08:00N 27°55' W 082°27'0 0.0
2018-Feb-15 07:30N 27°55' W 082°27'0 0.0
2018-Feb-15 07:00N 27°55' W 082°27'0 0.0
2018-Feb-15 06:30N 27°55' W 082°27'0 0.0
2018-Feb-15 06:00N 27°55' W 082°27'0 0.0
2018-Feb-15 05:30N 27°55' W 082°27'0 0.0
2018-Feb-15 05:00N 27°55' W 082°27'0 0.0
2018-Feb-15 04:30N 27°55' W 082°27'0 0.0
2018-Feb-15 04:00N 27°55' W 082°27'0 0.0
2018-Feb-15 03:31N 27°55' W 082°27'0 0.0
2018-Feb-15 03:01N 27°55' W 082°27'1 1.3
2018-Feb-15 02:30N 27°55' W 082°27'1 2.3
2018-Feb-15 02:01N 27°56' W 082°26'0 0.1
2018-Feb-15 01:30N 27°56' W 082°26'1 1.3
2018-Feb-15 01:00N 27°55' W 082°25'0 0.0
2018-Feb-15 00:30N 27°55' W 082°25'4 7.1
2018-Feb-15 00:00N 27°52' W 082°27'510.0
2018-Feb-14 23:30N 27°48' W 082°30'4 7.6
2018-Feb-14 22:56N 27°50' W 082°34'2 4.8
2018-Feb-14 22:30N 27°52' W 082°33'0 0.0
2018-Feb-14 22:00N 27°52' W 082°33'0 0.0
2018-Feb-14 21:29N 27°52' W 082°33'0 0.0
2018-Feb-14 21:01N 27°52' W 082°33'0 0.0
2018-Feb-14 20:30N 27°52' W 082°33'0 0.0
2018-Feb-14 20:00N 27°52' W 082°33'0 0.0
2018-Feb-14 19:30N 27°52' W 082°33'0 0.0
2018-Feb-14 19:00N 27°52' W 082°33'0 0.0
2018-Feb-14 18:30N 27°52' W 082°33'0 0.0
2018-Feb-14 17:57N 27°52' W 082°33'0 0.0
2018-Feb-14 17:30N 27°52' W 082°33'0 0.0
2018-Feb-14 17:00N 27°52' W 082°33'0 0.0
2018-Feb-14 16:30N 27°52' W 082°33'0 0.0
2018-Feb-14 16:00N 27°52' W 082°33'0 0.0
2018-Feb-14 15:30N 27°52' W 082°33'0 0.0
2018-Feb-14 14:59N 27°52' W 082°33'0 0.6
2018-Feb-14 14:29N 27°52' W 082°33'0 0.3
2018-Feb-14 13:58N 27°52' W 082°33'6 5.2
2018-Feb-14 12:49N 27°49' W 082°27'310.8
2018-Feb-14 12:30N 27°52' W 082°27'3 6.3
2018-Feb-14 12:00N 27°55' W 082°27'0 0.0
2018-Feb-14 11:30N 27°55' W 082°27'0 0.0
2018-Feb-14 11:00N 27°55' W 082°27'0 0.0
2018-Feb-14 10:30N 27°55' W 082°27'0 0.0
2018-Feb-14 10:00N 27°55' W 082°27'0 0.0
2018-Feb-14 09:30N 27°55' W 082°27'0 0.0
2018-Feb-14 09:00N 27°55' W 082°27'0 0.0
2018-Feb-14 08:30N 27°55' W 082°27'0 0.0
2018-Feb-14 08:00N 27°55' W 082°27'0 0.0
2018-Feb-14 07:31N 27°55' W 082°27'0 0.0
2018-Feb-14 07:01N 27°55' W 082°27'0 0.0
2018-Feb-14 06:30N 27°55' W 082°27'  

Dump ship's entire track history